Time;durP1;ratioP1;P1;durP2;ratioP2;P2;SDS_P1;SDS_P2;PMS_P1;PMS_P2;Temp;Humidity;BMP_temperature;BMP_pressure;BME280_temperature;BME280_humidity;BME280_pressure;Samples;Min_cycle;Max_cycle;Signal;HPM_P1;HPM_P2
2023/06/14 00:00:52;;;;;;;5.38;4.97;;;;;;;;;;5117881;28;20203;-62
2023/06/14 00:03:21;;;;;;;5.18;4.78;;;;;;;;;;5117564;28;20217;-62
2023/06/14 00:05:49;;;;;;;5.25;4.75;;;;;;;;;;5117237;28;20203;-62
2023/06/14 00:08:18;;;;;;;4.97;4.55;;;;;;;;;;5117622;28;20222;-62
2023/06/14 00:10:46;;;;;;;5.22;4.75;;;;;;;;;;5117794;28;20297;-62
2023/06/14 00:13:16;;;;;;;5.22;4.82;;;;;;;;;;5117559;28;20203;-62
2023/06/14 00:15:43;;;;;;;5.40;5.00;;;;;;;;;;5117542;28;20211;-62
2023/06/14 00:18:11;;;;;;;5.70;5.20;;;;;;;;;;5117634;28;20199;-62
2023/06/14 00:20:39;;;;;;;5.25;4.85;;;;;;;;;;5118013;28;20203;-62
2023/06/14 00:23:06;;;;;;;5.28;4.88;;;;;;;;;;5118260;28;20214;-62
2023/06/14 00:25:34;;;;;;;5.18;4.78;;;;;;;;;;5121550;28;20245;-62
2023/06/14 00:28:02;;;;;;;5.82;4.88;;;;;;;;;;5122024;28;20227;-62
2023/06/14 00:30:31;;;;;;;5.38;4.93;;;;;;;;;;5121626;28;20644;-62
2023/06/14 00:32:59;;;;;;;5.45;4.95;;;;;;;;;;5134242;27;20218;-62
2023/06/14 00:35:27;;;;;;;5.20;4.80;;;;;;;;;;5142145;27;20286;-62
2023/06/14 00:37:55;;;;;;;5.05;4.72;;;;;;;;;;5141760;27;20199;-62
2023/06/14 00:40:23;;;;;;;4.90;4.50;;;;;;;;;;5141948;27;20202;-62
2023/06/14 00:42:51;;;;;;;5.68;5.22;;;;;;;;;;5141703;27;20263;-62
2023/06/14 00:45:18;;;;;;;5.45;5.00;;;;;;;;;;5142556;27;20206;-61
2023/06/14 00:47:48;;;;;;;5.22;4.82;;;;;;;;;;5161920;27;20270;-62
2023/06/14 00:50:15;;;;;;;5.10;4.70;;;;;;;;;;5162275;27;20209;-62
2023/06/14 00:52:43;;;;;;;5.03;4.63;;;;;;;;;;5162447;27;20244;-62
2023/06/14 00:55:11;;;;;;;5.07;4.70;;;;;;;;;;5161957;27;20202;-62
2023/06/14 00:57:39;;;;;;;5.47;5.07;;;;;;;;;;5162226;27;20209;-62
2023/06/14 01:00:09;;;;;;;5.20;4.80;;;;;;;;;;5162280;27;20212;-62
2023/06/14 01:02:37;;;;;;;5.38;4.97;;;;;;;;;;5162211;27;20213;-62
2023/06/14 01:05:06;;;;;;;4.88;4.43;;;;;;;;;;5162151;27;20286;-62
2023/06/14 01:07:39;;;;;;;5.22;4.65;;;;;;;;;;5161904;27;20201;-62
2023/06/14 01:10:14;;;;;;;5.18;4.78;;;;;;;;;;5162006;27;20484;-62
2023/06/14 01:12:46;;;;;;;5.20;4.80;;;;;;;;;;5161623;27;20235;-62
2023/06/14 01:15:14;;;;;;;4.72;4.22;;;;;;;;;;5161603;27;20592;-61
2023/06/14 01:17:46;;;;;;;4.82;4.43;;;;;;;;;;5161877;27;20669;-61
2023/06/14 01:20:17;;;;;;;4.80;4.43;;;;;;;;;;5161714;27;20212;-61
2023/06/14 01:22:50;;;;;;;4.75;4.35;;;;;;;;;;5161916;27;20521;-61
2023/06/14 01:25:20;;;;;;;5.32;4.82;;;;;;;;;;5161444;27;20202;-62
2023/06/14 01:27:49;;;;;;;5.40;4.90;;;;;;;;;;5161771;27;20581;-62
2023/06/14 01:30:17;;;;;;;5.10;4.60;;;;;;;;;;5161626;27;20208;-61
2023/06/14 01:32:45;;;;;;;5.20;4.30;;;;;;;;;;5161648;27;20627;-61
2023/06/14 01:35:13;;;;;;;5.00;4.60;;;;;;;;;;5161587;27;20296;-61
2023/06/14 01:37:41;;;;;;;4.90;4.50;;;;;;;;;;5161305;27;20262;-61
2023/06/14 01:40:11;;;;;;;4.63;4.22;;;;;;;;;;5161801;27;20541;-61
2023/06/14 01:42:40;;;;;;;4.82;4.43;;;;;;;;;;5161488;27;20537;-61
2023/06/14 01:45:08;;;;;;;4.50;4.10;;;;;;;;;;5161178;27;20202;-61
2023/06/14 01:47:36;;;;;;;5.85;4.57;;;;;;;;;;5161300;27;20209;-61
2023/06/14 01:50:04;;;;;;;4.55;4.22;;;;;;;;;;5161612;27;20197;-61
2023/06/14 01:52:32;;;;;;;5.28;4.57;;;;;;;;;;5161307;27;20206;-62
2023/06/14 01:55:01;;;;;;;5.10;4.60;;;;;;;;;;5161004;27;20213;-62
2023/06/14 01:57:30;;;;;;;4.82;4.43;;;;;;;;;;5160989;27;20266;-62
2023/06/14 01:59:58;;;;;;;4.60;4.20;;;;;;;;;;5160917;27;20198;-62
2023/06/14 02:02:26;;;;;;;5.13;4.13;;;;;;;;;;5160849;27;20201;-62
2023/06/14 02:04:57;;;;;;;4.93;4.53;;;;;;;;;;5160796;27;20595;-61
2023/06/14 02:07:25;;;;;;;4.80;4.30;;;;;;;;;;5161043;27;20205;-61
2023/06/14 02:09:52;;;;;;;4.85;4.40;;;;;;;;;;5161137;27;20582;-61
2023/06/14 02:12:20;;;;;;;4.53;4.13;;;;;;;;;;5160716;27;20577;-61
2023/06/14 02:14:49;;;;;;;5.65;4.78;;;;;;;;;;5160694;27;20313;-61
2023/06/14 02:17:17;;;;;;;4.43;4.10;;;;;;;;;;5160696;27;20209;-61
2023/06/14 02:19:44;;;;;;;4.90;4.22;;;;;;;;;;5160273;27;20274;-61
2023/06/14 02:22:14;;;;;;;4.35;4.03;;;;;;;;;;5160579;27;20205;-61
2023/06/14 02:24:42;;;;;;;4.38;3.97;;;;;;;;;;5160493;27;20205;-62
2023/06/14 02:27:10;;;;;;;4.70;4.30;;;;;;;;;;5160875;27;20277;-62
2023/06/14 02:29:38;;;;;;;5.63;4.63;;;;;;;;;;5160353;27;20228;-61
2023/06/14 02:32:08;;;;;;;4.55;4.15;;;;;;;;;;5160679;27;20231;-61
2023/06/14 02:34:36;;;;;;;4.07;3.67;;;;;;;;;;5160676;27;20293;-61
2023/06/14 02:37:03;;;;;;;4.55;4.15;;;;;;;;;;5160412;27;20208;-62
2023/06/14 02:39:31;;;;;;;4.38;4.07;;;;;;;;;;5160527;27;20656;-62
2023/06/14 02:41:58;;;;;;;4.75;4.30;;;;;;;;;;5160475;27;20717;-61
2023/06/14 02:44:27;;;;;;;4.50;4.10;;;;;;;;;;5160609;27;20202;-61
2023/06/14 02:46:55;;;;;;;4.50;4.20;;;;;;;;;;5159337;27;20644;-61
2023/06/14 02:49:24;;;;;;;4.50;4.10;;;;;;;;;;5159747;27;20235;-61
2023/06/14 02:51:52;;;;;;;4.45;4.05;;;;;;;;;;5160302;27;20264;-61
2023/06/14 02:54:19;;;;;;;4.55;4.25;;;;;;;;;;5159636;27;20202;-61
2023/06/14 02:56:46;;;;;;;4.80;4.10;;;;;;;;;;5159905;27;20201;-62
2023/06/14 02:59:14;;;;;;;4.60;4.25;;;;;;;;;;5160116;27;20197;-61
2023/06/14 03:01:42;;;;;;;4.28;3.90;;;;;;;;;;5159603;27;20284;-62
2023/06/14 03:04:09;;;;;;;4.43;4.03;;;;;;;;;;5159611;27;20202;-62
2023/06/14 03:06:39;;;;;;;4.40;4.10;;;;;;;;;;5159561;27;20251;-62
2023/06/14 03:09:07;;;;;;;4.28;3.97;;;;;;;;;;5159565;27;20225;-62
2023/06/14 03:11:35;;;;;;;4.10;3.80;;;;;;;;;;5159571;27;20212;-62
2023/06/14 03:14:04;;;;;;;4.40;4.10;;;;;;;;;;5159343;27;20202;-61
2023/06/14 03:16:31;;;;;;;4.13;3.83;;;;;;;;;;5159469;27;20593;-61
2023/06/14 03:18:59;;;;;;;4.45;3.90;;;;;;;;;;5123765;27;20583;-61
2023/06/14 03:21:26;;;;;;;4.18;3.83;;;;;;;;;;5117572;28;20267;-61
2023/06/14 03:23:55;;;;;;;4.18;3.88;;;;;;;;;;5117768;28;20496;-61
2023/06/14 03:26:24;;;;;;;4.35;3.70;;;;;;;;;;5117720;28;20376;-61
2023/06/14 03:28:52;;;;;;;4.20;3.90;;;;;;;;;;5117931;28;20447;-61
2023/06/14 03:31:20;;;;;;;3.92;3.63;;;;;;;;;;5118124;28;20499;-61
2023/06/14 03:33:47;;;;;;;4.10;3.80;;;;;;;;;;5117872;28;20230;-62
2023/06/14 03:36:15;;;;;;;4.18;3.88;;;;;;;;;;5117977;28;20199;-61
2023/06/14 03:38:43;;;;;;;4.45;4.10;;;;;;;;;;5117854;28;20194;-61
2023/06/14 03:41:12;;;;;;;3.75;3.45;;;;;;;;;;5117498;28;20202;-61
2023/06/14 03:43:39;;;;;;;4.38;4.00;;;;;;;;;;5117561;28;20214;-61
2023/06/14 03:46:07;;;;;;;3.80;3.50;;;;;;;;;;5109526;27;20263;-62
2023/06/14 03:48:34;;;;;;;3.97;3.67;;;;;;;;;;5097416;28;20239;-62
2023/06/14 03:51:02;;;;;;;4.25;3.95;;;;;;;;;;5096952;28;20203;-62
2023/06/14 03:53:30;;;;;;;4.38;3.97;;;;;;;;;;5097209;28;20564;-61
2023/06/14 03:55:57;;;;;;;4.47;4.00;;;;;;;;;;5096957;28;20239;-61
2023/06/14 03:58:26;;;;;;;4.03;3.72;;;;;;;;;;5098196;28;20257;-61
2023/06/14 04:00:54;;;;;;;5.38;3.95;;;;;;;;;;5100057;28;20203;-61
2023/06/14 04:03:29;;;;;;;4.13;3.80;;;;;;;;;;5100564;28;20612;-61
2023/06/14 04:05:59;;;;;;;4.40;4.00;;;;;;;;;;5100977;28;20203;-61
2023/06/14 04:08:27;;;;;;;4.30;3.90;;;;;;;;;;5100364;28;20204;-61
2023/06/14 04:10:54;;;;;;;4.45;4.03;;;;;;;;;;5100997;28;20204;-61
2023/06/14 04:13:22;;;;;;;4.00;3.70;;;;;;;;;;5100929;28;20204;-61
2023/06/14 04:15:51;;;;;;;3.70;3.40;;;;;;;;;;5100894;28;20234;-61
2023/06/14 04:18:19;;;;;;;3.83;3.50;;;;;;;;;;5100898;28;20265;-61
2023/06/14 04:20:47;;;;;;;4.07;3.72;;;;;;;;;;5101013;28;20199;-61
2023/06/14 04:23:15;;;;;;;3.97;3.67;;;;;;;;;;5100614;28;20264;-61
2023/06/14 04:25:44;;;;;;;4.80;3.92;;;;;;;;;;5100843;28;20204;-61
2023/06/14 04:28:13;;;;;;;4.20;3.80;;;;;;;;;;5100322;28;20294;-61
2023/06/14 04:30:41;;;;;;;4.45;4.05;;;;;;;;;;5099876;28;20227;-62
2023/06/14 04:33:10;;;;;;;4.20;3.70;;;;;;;;;;5100020;28;20262;-61
2023/06/14 04:35:38;;;;;;;4.13;3.83;;;;;;;;;;5099834;28;20575;-61
2023/06/14 04:38:09;;;;;;;4.50;4.10;;;;;;;;;;5099592;28;20603;-61
2023/06/14 04:40:42;;;;;;;4.60;4.20;;;;;;;;;;5099188;28;20498;-61
2023/06/14 04:43:12;;;;;;;5.72;4.35;;;;;;;;;;5099350;28;20201;-61
2023/06/14 04:45:40;;;;;;;4.13;3.72;;;;;;;;;;5099196;28;20740;-61
2023/06/14 04:48:08;;;;;;;4.30;4.00;;;;;;;;;;5099181;28;20211;-61
2023/06/14 04:50:37;;;;;;;4.43;4.10;;;;;;;;;;5099433;28;20238;-61
2023/06/14 04:53:06;;;;;;;4.18;3.85;;;;;;;;;;5099346;28;20215;-61
2023/06/14 04:55:34;;;;;;;4.40;4.00;;;;;;;;;;5099298;28;20210;-61
2023/06/14 04:58:02;;;;;;;4.72;4.32;;;;;;;;;;5099107;28;20207;-61
2023/06/14 05:00:30;;;;;;;4.25;3.95;;;;;;;;;;5098815;28;20606;-61
2023/06/14 05:02:58;;;;;;;4.00;3.70;;;;;;;;;;5097925;28;20269;-61
2023/06/14 05:05:25;;;;;;;4.20;3.80;;;;;;;;;;5098143;28;20204;-61
2023/06/14 05:07:54;;;;;;;4.10;3.80;;;;;;;;;;5097905;28;20200;-61
2023/06/14 05:10:21;;;;;;;4.10;3.65;;;;;;;;;;5097001;28;20228;-61
2023/06/14 05:12:49;;;;;;;4.43;4.07;;;;;;;;;;5097516;28;20203;-61
2023/06/14 05:15:17;;;;;;;4.30;3.92;;;;;;;;;;5097902;28;20483;-61
2023/06/14 05:17:47;;;;;;;4.07;3.78;;;;;;;;;;5098232;28;20204;-61
2023/06/14 05:20:15;;;;;;;4.85;3.80;;;;;;;;;;5097075;28;20209;-61
2023/06/14 05:22:42;;;;;;;4.03;3.70;;;;;;;;;;5096984;28;20545;-61
2023/06/14 05:25:12;;;;;;;3.90;3.60;;;;;;;;;;5096189;28;20215;-61
2023/06/14 05:27:41;;;;;;;4.35;3.92;;;;;;;;;;5097443;28;20211;-61
2023/06/14 05:30:09;;;;;;;3.97;3.67;;;;;;;;;;5096712;28;20219;-61
2023/06/14 05:32:37;;;;;;;3.42;3.13;;;;;;;;;;5096447;28;20235;-61
2023/06/14 05:35:05;;;;;;;4.25;3.95;;;;;;;;;;5096459;28;20261;-61
2023/06/14 05:37:33;;;;;;;4.45;3.83;;;;;;;;;;5095952;28;20302;-61
2023/06/14 05:40:01;;;;;;;3.70;3.40;;;;;;;;;;5096461;28;20261;-61
2023/06/14 05:42:30;;;;;;;4.03;3.72;;;;;;;;;;5096288;28;20199;-61
2023/06/14 05:44:57;;;;;;;4.05;3.75;;;;;;;;;;5096550;28;20263;-61
2023/06/14 05:47:25;;;;;;;4.55;3.85;;;;;;;;;;5114649;28;20714;-61
2023/06/14 05:49:53;;;;;;;4.00;3.70;;;;;;;;;;5116401;28;20223;-61
2023/06/14 05:52:20;;;;;;;4.43;4.03;;;;;;;;;;5116679;28;20233;-61
2023/06/14 05:54:49;;;;;;;3.90;3.60;;;;;;;;;;5117960;28;20203;-61
2023/06/14 05:57:16;;;;;;;3.78;3.47;;;;;;;;;;5116370;28;20209;-61
2023/06/14 05:59:45;;;;;;;4.40;4.00;;;;;;;;;;5116502;28;20462;-61
2023/06/14 06:02:12;;;;;;;4.15;3.85;;;;;;;;;;5117146;28;20249;-61
2023/06/14 06:04:40;;;;;;;3.92;3.60;;;;;;;;;;5117426;28;20202;-61
2023/06/14 06:07:08;;;;;;;4.38;4.07;;;;;;;;;;5117005;28;20211;-61
2023/06/14 06:09:35;;;;;;;4.43;4.03;;;;;;;;;;5117282;28;20234;-61
2023/06/14 06:12:03;;;;;;;4.25;3.85;;;;;;;;;;5116358;28;20206;-61
2023/06/14 06:14:30;;;;;;;4.20;3.80;;;;;;;;;;5117075;28;20206;-61
2023/06/14 06:16:59;;;;;;;4.70;3.72;;;;;;;;;;5117000;28;20207;-61
2023/06/14 06:19:33;;;;;;;4.18;3.78;;;;;;;;;;5117006;28;20195;-61
2023/06/14 06:22:02;;;;;;;4.50;4.10;;;;;;;;;;5116216;28;20198;-61
2023/06/14 06:24:29;;;;;;;3.80;3.50;;;;;;;;;;5117551;28;20211;-61
2023/06/14 06:26:57;;;;;;;4.38;3.97;;;;;;;;;;5117210;28;20203;-61
2023/06/14 06:29:24;;;;;;;3.75;3.45;;;;;;;;;;5116757;28;20704;-61
2023/06/14 06:31:52;;;;;;;3.42;3.15;;;;;;;;;;5117266;28;20207;-61
2023/06/14 06:34:21;;;;;;;4.10;3.70;;;;;;;;;;5116169;28;20262;-61
2023/06/14 06:36:49;;;;;;;3.63;3.33;;;;;;;;;;5116461;28;20202;-62
2023/06/14 06:39:16;;;;;;;3.80;3.50;;;;;;;;;;5117129;28;20226;-62
2023/06/14 06:41:44;;;;;;;3.80;3.50;;;;;;;;;;5116573;28;20591;-62
2023/06/14 06:44:12;;;;;;;4.00;3.70;;;;;;;;;;5116891;28;20210;-61
2023/06/14 06:46:41;;;;;;;3.83;3.53;;;;;;;;;;5104310;28;20665;-61
2023/06/14 06:49:08;;;;;;;3.55;3.28;;;;;;;;;;5095528;28;20208;-61
2023/06/14 06:51:38;;;;;;;3.88;3.58;;;;;;;;;;5096071;28;20231;-61
2023/06/14 06:54:05;;;;;;;3.80;3.47;;;;;;;;;;5096418;28;20211;-61
2023/06/14 06:56:33;;;;;;;3.60;3.30;;;;;;;;;;5095796;28;20460;-61
2023/06/14 06:59:01;;;;;;;3.83;3.47;;;;;;;;;;5095945;28;20215;-62
2023/06/14 07:01:29;;;;;;;3.72;3.40;;;;;;;;;;5095613;28;20559;-62
2023/06/14 07:03:56;;;;;;;4.10;3.80;;;;;;;;;;5096081;28;20203;-62
2023/06/14 07:06:27;;;;;;;3.97;3.58;;;;;;;;;;5096224;28;20203;-62
2023/06/14 07:09:01;;;;;;;4.13;3.72;;;;;;;;;;5095798;28;20203;-62
2023/06/14 07:11:29;;;;;;;4.68;4.10;;;;;;;;;;5096076;28;20325;-62
2023/06/14 07:13:56;;;;;;;4.20;3.70;;;;;;;;;;5096089;28;20210;-62
2023/06/14 07:16:24;;;;;;;4.25;3.75;;;;;;;;;;5096131;28;20208;-62
2023/06/14 07:18:51;;;;;;;4.28;3.97;;;;;;;;;;5096086;28;20203;-62
2023/06/14 07:21:19;;;;;;;3.97;3.67;;;;;;;;;;5096195;28;20204;-62
2023/06/14 07:23:46;;;;;;;4.00;3.70;;;;;;;;;;5096081;28;20280;-62
2023/06/14 07:26:16;;;;;;;3.83;3.53;;;;;;;;;;5095826;28;20203;-62
2023/06/14 07:28:44;;;;;;;4.18;3.88;;;;;;;;;;5095417;28;20204;-61
2023/06/14 07:31:12;;;;;;;3.92;3.63;;;;;;;;;;5094691;28;20322;-61
2023/06/14 07:33:40;;;;;;;3.70;3.40;;;;;;;;;;5095307;28;20239;-61
2023/06/14 07:36:07;;;;;;;4.00;3.70;;;;;;;;;;5095269;28;20295;-61
2023/06/14 07:38:36;;;;;;;3.65;3.35;;;;;;;;;;5095522;28;20211;-61
2023/06/14 07:41:04;;;;;;;3.78;3.47;;;;;;;;;;5095698;28;20298;-61
2023/06/14 07:43:33;;;;;;;3.90;3.60;;;;;;;;;;5095196;28;20672;-61
2023/06/14 07:46:00;;;;;;;3.92;3.60;;;;;;;;;;5095350;28;20304;-61
2023/06/14 07:48:28;;;;;;;5.80;3.90;;;;;;;;;;5095512;28;20212;-62
2023/06/14 07:50:55;;;;;;;3.92;3.63;;;;;;;;;;5094679;28;20231;-61
2023/06/14 07:53:23;;;;;;;4.30;3.88;;;;;;;;;;5094730;28;20200;-61
2023/06/14 07:55:50;;;;;;;4.57;3.92;;;;;;;;;;5095587;28;20332;-62
2023/06/14 07:58:18;;;;;;;5.18;4.05;;;;;;;;;;5095235;28;20559;-61
2023/06/14 08:00:47;;;;;;;4.60;3.78;;;;;;;;;;5094666;28;20207;-61
2023/06/14 08:03:14;;;;;;;4.15;3.80;;;;;;;;;;5094405;28;20204;-62
2023/06/14 08:05:42;;;;;;;4.28;3.60;;;;;;;;;;5094708;28;20204;-61
2023/06/14 08:08:10;;;;;;;3.75;3.45;;;;;;;;;;5095370;28;20477;-61
2023/06/14 08:10:37;;;;;;;4.05;3.70;;;;;;;;;;5094980;28;20266;-62
2023/06/14 08:13:05;;;;;;;4.05;3.65;;;;;;;;;;5094313;28;20195;-62
2023/06/14 08:15:33;;;;;;;3.85;3.55;;;;;;;;;;5094275;28;20871;-62
2023/06/14 08:18:02;;;;;;;4.07;3.75;;;;;;;;;;5094800;28;20210;-62
2023/06/14 08:20:31;;;;;;;4.10;3.70;;;;;;;;;;5095221;28;20196;-61
2023/06/14 08:22:59;;;;;;;4.32;3.92;;;;;;;;;;5095251;28;20776;-61
2023/06/14 08:25:27;;;;;;;3.55;3.25;;;;;;;;;;5095223;28;20218;-61
2023/06/14 08:27:54;;;;;;;4.13;3.58;;;;;;;;;;5095333;28;20328;-61
2023/06/14 08:30:22;;;;;;;3.95;3.65;;;;;;;;;;5095238;28;20262;-61
2023/06/14 08:32:49;;;;;;;3.70;3.40;;;;;;;;;;5094190;28;20203;-62
2023/06/14 08:35:19;;;;;;;3.58;3.28;;;;;;;;;;5095271;28;20288;-61
2023/06/14 08:37:46;;;;;;;4.07;3.78;;;;;;;;;;5095403;28;20474;-61
2023/06/14 08:40:20;;;;;;;4.18;3.38;;;;;;;;;;5095305;28;20550;-62
2023/06/14 08:42:49;;;;;;;3.53;3.28;;;;;;;;;;5094140;28;20199;-61
2023/06/14 08:45:17;;;;;;;3.92;3.63;;;;;;;;;;5096241;28;20228;-61
2023/06/14 08:47:45;;;;;;;4.35;3.95;;;;;;;;;;5097971;28;20200;-61
2023/06/14 08:50:15;;;;;;;4.72;3.60;;;;;;;;;;5097831;28;20595;-61
2023/06/14 08:52:50;;;;;;;4.30;3.90;;;;;;;;;;5098102;28;20211;-62
2023/06/14 08:55:19;;;;;;;3.97;3.67;;;;;;;;;;5097912;28;20210;-62
2023/06/14 08:57:49;;;;;;;4.10;3.80;;;;;;;;;;5098050;28;20297;-61
2023/06/14 09:00:17;;;;;;;4.45;4.15;;;;;;;;;;5098204;28;20208;-61
2023/06/14 09:02:44;;;;;;;3.75;3.45;;;;;;;;;;5098031;28;20214;-61
2023/06/14 09:05:13;;;;;;;4.75;3.97;;;;;;;;;;5098162;28;20211;-61
2023/06/14 09:07:41;;;;;;;3.90;3.60;;;;;;;;;;5097683;28;20218;-62
2023/06/14 09:10:12;;;;;;;4.40;4.00;;;;;;;;;;5097516;28;20573;-61
2023/06/14 09:12:40;;;;;;;4.93;4.30;;;;;;;;;;5097614;28;20234;-61
2023/06/14 09:15:09;;;;;;;4.32;4.03;;;;;;;;;;5097466;28;20206;-61
2023/06/14 09:17:37;;;;;;;4.40;4.10;;;;;;;;;;5097331;28;20703;-61
2023/06/14 09:20:09;;;;;;;4.00;3.70;;;;;;;;;;5099594;28;20203;-62
2023/06/14 09:22:36;;;;;;;4.10;3.80;;;;;;;;;;5117099;28;20259;-62
2023/06/14 09:25:04;;;;;;;4.15;3.85;;;;;;;;;;5117318;28;20607;-62
2023/06/14 09:27:35;;;;;;;4.43;3.75;;;;;;;;;;5117042;28;20217;-61
2023/06/14 09:30:02;;;;;;;4.43;4.03;;;;;;;;;;5117890;28;20202;-62
2023/06/14 09:32:30;;;;;;;4.65;4.32;;;;;;;;;;5117376;28;20222;-62
2023/06/14 09:34:57;;;;;;;4.68;3.92;;;;;;;;;;5116130;28;20210;-61
2023/06/14 09:37:28;;;;;;;3.88;3.58;;;;;;;;;;5117567;28;20210;-62
2023/06/14 09:39:56;;;;;;;3.95;3.63;;;;;;;;;;5117710;28;20211;-62
2023/06/14 09:42:25;;;;;;;4.05;3.72;;;;;;;;;;5116227;28;20210;-62
2023/06/14 09:44:54;;;;;;;4.20;3.80;;;;;;;;;;5117228;28;20230;-62
2023/06/14 09:47:22;;;;;;;4.28;3.90;;;;;;;;;;5116630;27;20258;-62
2023/06/14 09:49:49;;;;;;;4.03;3.78;;;;;;;;;;5117076;28;20203;-62
2023/06/14 09:52:19;;;;;;;4.03;3.72;;;;;;;;;;5117297;28;20227;-62
2023/06/14 09:54:47;;;;;;;4.35;3.65;;;;;;;;;;5117289;28;20198;-62
2023/06/14 09:57:16;;;;;;;4.10;3.80;;;;;;;;;;5117304;28;20263;-62
2023/06/14 09:59:44;;;;;;;3.75;3.45;;;;;;;;;;5117184;28;20203;-62
2023/06/14 10:02:27;;;;;;;5.28;3.60;;;;;;;;;;5117016;28;20207;-62
2023/06/14 10:05:00;;;;;;;3.78;3.47;;;;;;;;;;5116153;28;20312;-63
2023/06/14 10:07:31;;;;;;;4.28;3.97;;;;;;;;;;5115728;28;20264;-63
2023/06/14 10:09:58;;;;;;;4.13;3.83;;;;;;;;;;5116455;28;20581;-63
2023/06/14 10:12:27;;;;;;;3.90;3.60;;;;;;;;;;5115934;28;20229;-63
2023/06/14 10:14:55;;;;;;;3.72;3.42;;;;;;;;;;5116091;28;20229;-63
2023/06/14 10:17:29;;;;;;;3.83;3.63;;;;;;;;;;5115910;28;20470;-63
2023/06/14 10:19:57;;;;;;;4.10;3.80;;;;;;;;;;5115879;28;20202;-63
2023/06/14 10:22:28;;;;;;;3.85;3.58;;;;;;;;;;5115919;28;20493;-63
2023/06/14 10:24:55;;;;;;;4.22;3.92;;;;;;;;;;5115911;28;20621;-62
2023/06/14 10:27:24;;;;;;;4.15;3.83;;;;;;;;;;5115862;28;20644;-62
2023/06/14 10:30:05;;;;;;;3.53;3.22;;;;;;;;;;5116160;28;20277;-63
2023/06/14 10:32:34;;;;;;;3.75;3.45;;;;;;;;;;5115578;28;20625;-63
2023/06/14 10:35:02;;;;;;;4.15;3.75;;;;;;;;;;5115422;28;20732;-63
2023/06/14 10:37:29;;;;;;;3.95;3.65;;;;;;;;;;5115661;28;20213;-62
2023/06/14 10:39:56;;;;;;;4.00;3.70;;;;;;;;;;5115587;28;20386;-63
2023/06/14 10:42:29;;;;;;;4.20;3.80;;;;;;;;;;5114920;28;20610;-63
2023/06/14 10:44:56;;;;;;;3.70;3.40;;;;;;;;;;5115860;28;20796;-62
2023/06/14 10:47:28;;;;;;;4.03;3.70;;;;;;;;;;5116296;28;20640;-62
2023/06/14 10:49:57;;;;;;;4.05;3.63;;;;;;;;;;5114686;28;20214;-63
2023/06/14 10:52:27;;;;;;;5.25;3.88;;;;;;;;;;5115877;28;20224;-62
2023/06/14 10:55:05;;;;;;;4.00;3.70;;;;;;;;;;5115198;28;20289;-62
2023/06/14 10:57:35;;;;;;;4.95;3.30;;;;;;;;;;5115838;28;20203;-62
2023/06/14 11:00:11;;;;;;;4.35;3.60;;;;;;;;;;5115280;28;20207;-62
2023/06/14 11:02:54;;;;;;;4.22;3.85;;;;;;;;;;5116275;28;20312;-62
2023/06/14 11:05:26;;;;;;;4.00;3.70;;;;;;;;;;5115507;28;20198;-62
2023/06/14 11:08:06;;;;;;;3.83;3.40;;;;;;;;;;5115245;28;20566;-62
2023/06/14 11:10:37;;;;;;;5.50;3.60;;;;;;;;;;5116423;28;20202;-62
2023/06/14 11:13:05;;;;;;;3.72;3.50;;;;;;;;;;5115892;28;20741;-62
2023/06/14 11:15:32;;;;;;;4.10;3.80;;;;;;;;;;5115367;28;20203;-62
2023/06/14 11:18:02;;;;;;;4.72;4.00;;;;;;;;;;5115528;28;20195;-62
2023/06/14 11:20:32;;;;;;;3.95;3.65;;;;;;;;;;5114487;28;20206;-61
2023/06/14 11:22:59;;;;;;;4.38;4.07;;;;;;;;;;5114953;28;20203;-62
2023/06/14 11:25:27;;;;;;;4.30;3.90;;;;;;;;;;5114583;28;20199;-62
2023/06/14 11:27:55;;;;;;;3.70;3.50;;;;;;;;;;5115378;28;20301;-62
2023/06/14 11:30:22;;;;;;;4.13;3.70;;;;;;;;;;5115022;28;20626;-62
2023/06/14 11:32:51;;;;;;;4.32;3.92;;;;;;;;;;5113988;28;20219;-61
2023/06/14 11:35:19;;;;;;;3.90;3.50;;;;;;;;;;5115324;28;20633;-62
2023/06/14 11:37:48;;;;;;;3.97;3.67;;;;;;;;;;5115073;28;20203;-61
2023/06/14 11:40:16;;;;;;;4.03;3.72;;;;;;;;;;5114437;28;20226;-62
2023/06/14 11:42:43;;;;;;;3.90;3.60;;;;;;;;;;5113475;28;20586;-61
2023/06/14 11:45:11;;;;;;;4.10;3.75;;;;;;;;;;5114841;28;20217;-61
2023/06/14 11:47:39;;;;;;;4.05;3.75;;;;;;;;;;5114982;28;20214;-61
2023/06/14 11:50:08;;;;;;;3.92;3.63;;;;;;;;;;5115034;28;20515;-61
2023/06/14 11:52:35;;;;;;;4.10;3.80;;;;;;;;;;5115069;28;20219;-61
2023/06/14 11:55:05;;;;;;;3.83;3.40;;;;;;;;;;5114074;28;20207;-62
2023/06/14 11:57:35;;;;;;;4.20;3.90;;;;;;;;;;5115417;28;20198;-62
2023/06/14 12:00:07;;;;;;;3.97;3.67;;;;;;;;;;5114964;28;20265;-62
2023/06/14 12:02:35;;;;;;;3.75;3.47;;;;;;;;;;5115193;28;20195;-62
2023/06/14 12:05:07;;;;;;;4.13;3.83;;;;;;;;;;5113475;28;20205;-62
2023/06/14 12:07:35;;;;;;;4.35;3.90;;;;;;;;;;5114946;28;20282;-62
2023/06/14 12:10:10;;;;;;;4.22;3.83;;;;;;;;;;5115462;28;20214;-62
2023/06/14 12:12:39;;;;;;;4.00;3.70;;;;;;;;;;5114193;28;20626;-62
2023/06/14 12:15:07;;;;;;;3.80;3.50;;;;;;;;;;5114231;28;20203;-61
2023/06/14 12:17:35;;;;;;;3.90;3.60;;;;;;;;;;5113928;28;20220;-62
2023/06/14 12:20:10;;;;;;;3.85;3.55;;;;;;;;;;5116732;28;20198;-62
2023/06/14 12:22:38;;;;;;;3.83;3.53;;;;;;;;;;5118187;28;20520;-62
2023/06/14 12:25:09;;;;;;;3.90;3.60;;;;;;;;;;5117179;28;20297;-62
2023/06/14 12:27:41;;;;;;;4.50;4.10;;;;;;;;;;5117342;28;20205;-62
2023/06/14 12:30:10;;;;;;;4.00;3.70;;;;;;;;;;5115954;28;20210;-62
2023/06/14 12:32:37;;;;;;;4.00;3.70;;;;;;;;;;5117920;28;20364;-61
2023/06/14 12:35:05;;;;;;;4.00;3.70;;;;;;;;;;5117114;28;20195;-62
2023/06/14 12:37:32;;;;;;;3.90;3.60;;;;;;;;;;5116228;28;20461;-62
2023/06/14 12:40:00;;;;;;;6.35;3.80;;;;;;;;;;5115685;28;20234;-62
2023/06/14 12:42:27;;;;;;;4.07;3.75;;;;;;;;;;5117626;28;20191;-62
2023/06/14 12:44:56;;;;;;;4.45;4.15;;;;;;;;;;5118043;28;20203;-62
2023/06/14 12:47:23;;;;;;;4.40;4.10;;;;;;;;;;5117456;27;20230;-62
2023/06/14 12:49:51;;;;;;;4.43;4.10;;;;;;;;;;5117950;28;20770;-62
2023/06/14 12:52:18;;;;;;;3.97;3.67;;;;;;;;;;5117645;28;20223;-62
2023/06/14 12:54:46;;;;;;;4.03;3.72;;;;;;;;;;5117417;28;20215;-62
2023/06/14 12:57:13;;;;;;;4.25;3.78;;;;;;;;;;5117105;28;20698;-62
2023/06/14 12:59:40;;;;;;;4.38;3.97;;;;;;;;;;5116040;28;20195;-62
2023/06/14 13:02:20;;;;;;;4.47;4.18;;;;;;;;;;5116800;28;20199;-62
2023/06/14 13:04:48;;;;;;;4.80;4.40;;;;;;;;;;5116548;28;20226;-61
2023/06/14 13:07:15;;;;;;;4.45;4.05;;;;;;;;;;5116752;28;20194;-61
2023/06/14 13:09:43;;;;;;;4.60;4.30;;;;;;;;;;5117678;28;20218;-61
2023/06/14 13:12:12;;;;;;;4.65;4.25;;;;;;;;;;5116982;28;20256;-61
2023/06/14 13:14:40;;;;;;;5.00;4.50;;;;;;;;;;5117259;28;20230;-61
2023/06/14 13:17:07;;;;;;;4.40;4.00;;;;;;;;;;5117153;28;20210;-62
2023/06/14 13:19:36;;;;;;;4.15;3.85;;;;;;;;;;5116241;28;20195;-64
2023/06/14 13:22:04;;;;;;;5.50;4.47;;;;;;;;;;5116043;28;20198;-63
2023/06/14 13:24:31;;;;;;;4.15;3.78;;;;;;;;;;5116953;28;20199;-61
2023/06/14 13:26:59;;;;;;;4.53;4.22;;;;;;;;;;5116820;28;20472;-61
2023/06/14 13:29:27;;;;;;;4.93;4.43;;;;;;;;;;5116395;28;20282;-61
2023/06/14 13:31:55;;;;;;;4.65;4.25;;;;;;;;;;5115912;28;20219;-61
2023/06/14 13:34:22;;;;;;;4.30;4.00;;;;;;;;;;5115839;28;20195;-62
2023/06/14 13:36:51;;;;;;;4.78;4.32;;;;;;;;;;5115495;28;20214;-62
2023/06/14 13:39:18;;;;;;;4.78;4.05;;;;;;;;;;5115281;28;20203;-62
2023/06/14 13:41:46;;;;;;;4.70;4.28;;;;;;;;;;5115244;28;20202;-61
2023/06/14 13:44:16;;;;;;;4.38;4.05;;;;;;;;;;5116618;28;20713;-61
2023/06/14 13:46:44;;;;;;;4.22;3.92;;;;;;;;;;5114963;28;20235;-62
2023/06/14 13:49:12;;;;;;;4.50;4.13;;;;;;;;;;5116516;28;20194;-61
2023/06/14 13:51:39;;;;;;;4.60;4.20;;;;;;;;;;5115953;28;20199;-62
2023/06/14 13:54:08;;;;;;;4.82;4.47;;;;;;;;;;5116085;28;20610;-61
2023/06/14 13:56:36;;;;;;;4.70;4.30;;;;;;;;;;5115408;28;20612;-61
2023/06/14 13:59:03;;;;;;;4.80;4.40;;;;;;;;;;5114615;28;20652;-62
2023/06/14 14:01:31;;;;;;;4.20;3.90;;;;;;;;;;5115061;28;20207;-62
2023/06/14 14:04:00;;;;;;;5.93;4.38;;;;;;;;;;5114363;28;20200;-61
2023/06/14 14:06:27;;;;;;;4.25;3.85;;;;;;;;;;5115476;28;20211;-61
2023/06/14 14:08:55;;;;;;;4.70;4.40;;;;;;;;;;5115169;28;20195;-61
2023/06/14 14:11:24;;;;;;;4.50;3.92;;;;;;;;;;5114755;28;20194;-62
2023/06/14 14:13:51;;;;;;;5.20;4.60;;;;;;;;;;5114206;28;20726;-61
2023/06/14 14:16:19;;;;;;;4.53;4.22;;;;;;;;;;5114682;28;20226;-61
2023/06/14 14:18:46;;;;;;;4.80;4.28;;;;;;;;;;5114405;28;20203;-61
2023/06/14 14:21:13;;;;;;;4.72;4.32;;;;;;;;;;5114174;28;20202;-62
2023/06/14 14:23:41;;;;;;;4.47;4.07;;;;;;;;;;5115677;28;20214;-62
2023/06/14 14:26:08;;;;;;;4.43;3.70;;;;;;;;;;5115151;28;20230;-61
2023/06/14 14:28:37;;;;;;;4.50;4.20;;;;;;;;;;5114547;28;20601;-62
2023/06/14 14:31:04;;;;;;;4.20;3.90;;;;;;;;;;5115545;28;20203;-62
2023/06/14 14:33:32;;;;;;;4.10;3.80;;;;;;;;;;5115684;28;20639;-62
2023/06/14 14:36:03;;;;;;;4.20;3.90;;;;;;;;;;5115806;28;20206;-62
2023/06/14 14:38:31;;;;;;;4.30;4.00;;;;;;;;;;5115367;28;20205;-62
2023/06/14 14:40:58;;;;;;;4.13;3.83;;;;;;;;;;5115611;28;20195;-62
2023/06/14 14:43:26;;;;;;;4.05;3.75;;;;;;;;;;5115419;28;20206;-62
2023/06/14 14:45:55;;;;;;;4.20;3.90;;;;;;;;;;5121105;27;20625;-62
2023/06/14 14:48:22;;;;;;;4.07;3.70;;;;;;;;;;5135731;27;20217;-62
2023/06/14 14:50:50;;;;;;;4.10;3.80;;;;;;;;;;5135279;27;20203;-62